createdAt,value
2023-05-25T00:01:30.718Z,16.62
2023-05-25T00:04:00.703Z,16.55
2023-05-25T00:06:30.605Z,16.47
2023-05-25T00:08:58.754Z,16.40
2023-05-25T00:11:27.172Z,16.35
2023-05-25T00:13:55.650Z,16.32
2023-05-25T00:16:23.432Z,16.28
2023-05-25T00:18:53.115Z,16.27
2023-05-25T00:21:22.279Z,16.29
2023-05-25T00:23:50.039Z,16.27
2023-05-25T00:26:17.860Z,16.25
2023-05-25T00:28:46.120Z,16.24
2023-05-25T00:31:14.058Z,16.23
2023-05-25T00:33:41.995Z,16.22
2023-05-25T00:36:10.483Z,16.18
2023-05-25T00:38:39.827Z,16.25
2023-05-25T00:41:07.620Z,16.24
2023-05-25T00:43:35.722Z,16.22
2023-05-25T00:46:04.243Z,16.18
2023-05-25T00:48:32.390Z,16.15
2023-05-25T00:51:01.302Z,16.12
2023-05-25T00:53:29.136Z,16.11
2023-05-25T00:56:06.188Z,16.09
2023-05-25T00:58:35.830Z,16.07
2023-05-25T01:01:06.712Z,16.10
2023-05-25T01:03:39.000Z,16.07
2023-05-25T01:06:13.533Z,15.97
2023-05-25T01:08:43.562Z,15.93
2023-05-25T01:11:16.894Z,15.79
2023-05-25T01:13:46.349Z,15.75
2023-05-25T01:16:14.280Z,15.73
2023-05-25T01:18:43.289Z,15.68
2023-05-25T01:21:20.150Z,15.70
2023-05-25T01:23:54.558Z,15.70
2023-05-25T01:26:24.817Z,15.69
2023-05-25T01:28:53.925Z,15.73
2023-05-25T01:31:23.861Z,15.75
2023-05-25T01:33:52.801Z,15.77
2023-05-25T01:36:22.022Z,15.80
2023-05-25T01:38:50.910Z,15.82
2023-05-25T01:41:18.681Z,15.84
2023-05-25T01:43:46.792Z,15.85
2023-05-25T01:46:22.949Z,15.88
2023-05-25T01:48:56.949Z,15.88
2023-05-25T01:51:33.855Z,15.85
2023-05-25T01:54:08.015Z,15.84
2023-05-25T01:56:37.562Z,15.80
2023-05-25T01:59:09.078Z,15.77
2023-05-25T02:01:38.485Z,15.77
2023-05-25T02:04:07.012Z,15.77
2023-05-25T02:06:37.016Z,15.78
2023-05-25T02:09:05.618Z,15.76
2023-05-25T02:11:33.452Z,15.75
2023-05-25T02:14:01.237Z,15.75
2023-05-25T02:16:30.560Z,15.74
2023-05-25T02:18:59.139Z,15.74
2023-05-25T02:21:26.890Z,15.73
2023-05-25T02:23:58.434Z,15.69
2023-05-25T02:26:26.326Z,15.64
2023-05-25T02:28:54.201Z,15.57
2023-05-25T02:31:22.684Z,15.54
2023-05-25T02:33:50.462Z,15.50
2023-05-25T02:36:18.210Z,15.47
2023-05-25T02:38:47.814Z,15.44
2023-05-25T02:41:16.773Z,15.45
2023-05-25T02:43:44.622Z,15.45
2023-05-25T02:46:12.787Z,15.42
2023-05-25T02:48:40.838Z,15.39
2023-05-25T02:51:08.587Z,15.36
2023-05-25T02:53:37.297Z,15.33
2023-05-25T02:56:06.427Z,15.34
2023-05-25T02:58:35.521Z,15.32
2023-05-25T03:01:04.425Z,15.32
2023-05-25T03:03:32.478Z,15.31
2023-05-25T03:06:00.353Z,15.30
2023-05-25T03:08:28.593Z,15.29
2023-05-25T03:10:56.463Z,15.28
2023-05-25T03:13:24.226Z,15.26
2023-05-25T03:15:53.802Z,15.26
2023-05-25T03:18:21.549Z,15.24
2023-05-25T03:20:49.416Z,15.23
2023-05-25T03:23:17.443Z,15.22
2023-05-25T03:25:45.955Z,15.21
2023-05-25T03:28:13.987Z,15.20
2023-05-25T03:30:42.909Z,15.19
2023-05-25T03:33:13.838Z,15.17
2023-05-25T03:35:41.821Z,15.14
2023-05-25T03:38:10.096Z,15.13
2023-05-25T03:40:37.901Z,15.12
2023-05-25T03:43:05.653Z,15.11
2023-05-25T03:45:33.662Z,15.09
2023-05-25T03:48:01.532Z,15.08
2023-05-25T03:50:30.799Z,15.07
2023-05-25T03:52:58.984Z,15.05
2023-05-25T03:55:26.704Z,15.03
2023-05-25T03:57:54.498Z,15.01
2023-05-25T04:00:22.673Z,14.99
2023-05-25T04:02:50.458Z,14.98
2023-05-25T04:05:18.345Z,14.96
2023-05-25T04:07:47.945Z,14.97
2023-05-25T04:10:15.514Z,15.02
2023-05-25T04:12:43.253Z,15.05
2023-05-25T04:15:14.605Z,15.06
2023-05-25T04:17:42.402Z,15.19
2023-05-25T04:20:11.019Z,15.32
2023-05-25T04:22:39.969Z,15.49
2023-05-25T04:25:10.449Z,15.71
2023-05-25T04:27:38.263Z,15.89
2023-05-25T04:30:07.442Z,16.09
2023-05-25T04:32:37.494Z,16.24
2023-05-25T04:35:06.570Z,16.35
2023-05-25T04:37:37.384Z,16.40
2023-05-25T04:40:12.151Z,16.37
2023-05-25T04:42:42.183Z,16.36
2023-05-25T04:45:11.209Z,16.29
2023-05-25T04:47:41.037Z,16.23
2023-05-25T04:50:11.442Z,16.13
2023-05-25T04:52:39.264Z,16.00
2023-05-25T04:55:07.946Z,15.89
2023-05-25T04:57:36.154Z,15.81
2023-05-25T05:00:10.045Z,15.74
2023-05-25T05:02:38.139Z,15.65
2023-05-25T05:05:06.631Z,15.54
2023-05-25T05:07:34.887Z,15.44
2023-05-25T05:10:02.612Z,15.37
2023-05-25T05:12:30.394Z,15.26
2023-05-25T05:14:59.299Z,15.21
2023-05-25T05:17:30.641Z,15.21
2023-05-25T05:19:58.850Z,15.15
2023-05-25T05:22:27.209Z,15.08
2023-05-25T05:24:55.422Z,15.01
2023-05-25T05:27:23.243Z,15.06
2023-05-25T05:29:51.026Z,15.03
2023-05-25T05:32:19.137Z,14.98
2023-05-25T05:34:48.268Z,14.94
2023-05-25T05:37:16.531Z,14.97
2023-05-25T05:39:44.281Z,14.96
2023-05-25T05:42:12.355Z,14.89
2023-05-25T05:44:40.121Z,14.93
2023-05-25T05:47:08.102Z,14.89
2023-05-25T05:49:38.275Z,14.83
2023-05-25T05:52:09.981Z,14.86
2023-05-25T05:54:38.066Z,14.90
2023-05-25T05:57:06.512Z,14.97
2023-05-25T05:59:34.241Z,15.03
2023-05-25T06:02:02.819Z,15.11
2023-05-25T06:04:30.724Z,15.18
2023-05-25T06:06:59.280Z,15.12
2023-05-25T06:09:28.498Z,15.07
2023-05-25T06:11:56.515Z,15.21
2023-05-25T06:14:25.635Z,15.23
2023-05-25T06:16:55.434Z,15.17
2023-05-25T06:19:23.655Z,15.27
2023-05-25T06:21:51.378Z,15.39
2023-05-25T06:24:19.514Z,15.47
2023-05-25T06:26:48.617Z,15.55
2023-05-25T06:29:17.926Z,15.65
2023-05-25T06:31:45.968Z,15.73
2023-05-25T06:34:13.987Z,15.85
2023-05-25T06:36:42.093Z,15.96
2023-05-25T06:39:10.190Z,16.05
2023-05-25T06:41:40.502Z,16.07
2023-05-25T06:44:10.199Z,16.18
2023-05-25T06:46:39.211Z,16.29
2023-05-25T06:49:07.343Z,16.35
2023-05-25T06:51:35.439Z,16.48
2023-05-25T06:54:03.317Z,16.33
2023-05-25T06:56:31.666Z,16.31
2023-05-25T06:58:59.428Z,16.38
2023-05-25T07:01:29.022Z,16.57
2023-05-25T07:03:56.699Z,16.71
2023-05-25T07:06:24.965Z,16.77
2023-05-25T07:08:52.831Z,16.88
2023-05-25T07:11:20.983Z,16.91
2023-05-25T07:13:48.770Z,16.92
2023-05-25T07:16:16.600Z,17.01
2023-05-25T07:18:46.178Z,17.01
2023-05-25T07:21:13.880Z,16.99
2023-05-25T07:23:42.048Z,17.02
2023-05-25T07:26:09.964Z,17.05
2023-05-25T07:28:38.011Z,17.06
2023-05-25T07:31:05.896Z,17.14
2023-05-25T07:33:34.482Z,17.27
2023-05-25T07:36:03.805Z,17.40
2023-05-25T07:38:31.591Z,17.46
2023-05-25T07:40:59.823Z,17.58
2023-05-25T07:43:28.039Z,17.67
2023-05-25T07:45:55.958Z,17.82
2023-05-25T07:48:24.208Z,17.96
2023-05-25T07:50:52.514Z,18.01
2023-05-25T07:53:21.641Z,18.21
2023-05-25T07:55:50.024Z,18.30
2023-05-25T07:58:18.624Z,18.42
2023-05-25T08:00:46.484Z,18.50
2023-05-25T08:03:14.568Z,18.54
2023-05-25T08:05:44.644Z,18.63
2023-05-25T08:08:14.284Z,18.72
2023-05-25T08:10:44.222Z,18.72
2023-05-25T08:13:12.226Z,18.87
2023-05-25T08:15:40.054Z,18.99
2023-05-25T08:18:08.407Z,19.06
2023-05-25T08:20:36.977Z,19.16
2023-05-25T08:23:04.884Z,19.27
2023-05-25T08:25:32.830Z,19.29
2023-05-25T08:28:02.587Z,19.34
2023-05-25T08:30:30.786Z,19.40
2023-05-25T08:32:58.886Z,19.46
2023-05-25T08:35:26.641Z,19.52
2023-05-25T08:37:54.526Z,19.56
2023-05-25T08:40:24.604Z,19.44
2023-05-25T08:42:52.417Z,19.56
2023-05-25T08:45:34.322Z,19.57
2023-05-25T08:48:08.091Z,19.70
2023-05-25T08:50:36.897Z,19.80
2023-05-25T08:53:10.113Z,19.92
2023-05-25T08:55:40.326Z,19.77
2023-05-25T08:58:15.820Z,19.78
2023-05-25T09:00:56.232Z,19.82
2023-05-25T09:03:25.919Z,19.74
2023-05-25T09:05:54.776Z,19.86
2023-05-25T09:08:23.409Z,19.90
2023-05-25T09:10:53.459Z,19.79
2023-05-25T09:13:22.784Z,19.70
2023-05-25T09:15:53.645Z,19.61
2023-05-25T09:18:21.855Z,19.60
2023-05-25T09:20:50.044Z,19.67
2023-05-25T09:23:18.659Z,19.51
2023-05-25T09:25:50.662Z,19.52
2023-05-25T09:30:53.565Z,19.58
2023-05-25T09:33:21.927Z,19.65
2023-05-25T09:35:51.512Z,19.66
2023-05-25T09:38:20.035Z,19.80
2023-05-25T09:40:48.903Z,19.84
2023-05-25T09:43:28.312Z,19.94
2023-05-25T09:46:07.730Z,20.00
2023-05-25T09:48:36.173Z,20.13
2023-05-25T09:51:03.989Z,20.26
2023-05-25T09:53:33.352Z,20.29
2023-05-25T09:56:03.201Z,20.35
2023-05-25T09:58:31.825Z,20.29
2023-05-25T10:01:00.038Z,20.35
2023-05-25T10:03:29.281Z,20.27
2023-05-25T10:05:57.269Z,20.31
2023-05-25T10:08:28.904Z,20.30
2023-05-25T10:10:57.004Z,20.37
2023-05-25T10:13:28.285Z,20.36
2023-05-25T10:15:57.259Z,20.32
2023-05-25T10:18:27.430Z,20.17
2023-05-25T10:21:03.947Z,20.26
2023-05-25T10:23:37.097Z,20.23
2023-05-25T10:26:09.239Z,20.27
2023-05-25T10:28:40.691Z,20.35
2023-05-25T10:31:11.216Z,20.34
2023-05-25T10:33:39.111Z,20.40
2023-05-25T10:36:11.489Z,20.52
2023-05-25T10:38:42.265Z,20.52
2023-05-25T10:41:11.563Z,20.57
2023-05-25T10:43:40.258Z,20.60
2023-05-25T10:46:09.471Z,20.65
2023-05-25T10:48:39.425Z,20.66
2023-05-25T10:51:11.778Z,20.65
2023-05-25T10:53:40.043Z,20.68
2023-05-25T10:56:10.981Z,20.67
2023-05-25T10:58:43.623Z,20.40
2023-05-25T11:01:14.077Z,20.33
2023-05-25T11:04:15.938Z,20.24
2023-05-25T11:07:17.051Z,20.36
2023-05-25T11:09:56.276Z,20.25
2023-05-25T11:12:24.505Z,20.28
2023-05-25T11:15:18.870Z,20.21
2023-05-25T11:18:00.444Z,20.32
2023-05-25T11:20:30.088Z,20.36
2023-05-25T11:23:22.349Z,20.27
2023-05-25T11:25:52.116Z,20.48
2023-05-25T11:28:20.406Z,20.59
2023-05-25T11:30:49.088Z,20.80
2023-05-25T11:33:17.803Z,20.95
2023-05-25T11:35:49.395Z,21.02
2023-05-25T11:38:18.024Z,21.12
2023-05-25T11:40:45.837Z,21.05
2023-05-25T11:43:16.219Z,21.10
2023-05-25T11:45:44.352Z,21.16
2023-05-25T11:48:14.801Z,21.32
2023-05-25T11:50:43.090Z,21.10
2023-05-25T11:53:11.733Z,21.25
2023-05-25T11:55:41.040Z,21.13
2023-05-25T11:58:09.364Z,21.11
2023-05-25T12:00:38.487Z,21.18
2023-05-25T12:03:06.524Z,21.09
2023-05-25T12:05:41.419Z,21.16
2023-05-25T12:08:09.394Z,21.21
2023-05-25T12:10:51.027Z,21.18
2023-05-25T12:13:18.940Z,21.01
2023-05-25T12:15:48.245Z,21.09
2023-05-25T12:18:16.574Z,21.14
2023-05-25T12:20:44.654Z,21.23
2023-05-25T12:23:13.842Z,21.20
2023-05-25T12:25:50.254Z,21.29
2023-05-25T12:28:18.661Z,21.23
2023-05-25T12:30:47.666Z,21.18
2023-05-25T12:33:16.977Z,21.29
2023-05-25T12:35:47.689Z,21.45
2023-05-25T12:38:17.438Z,21.25
2023-05-25T12:40:46.050Z,21.35
2023-05-25T12:43:14.648Z,21.31
2023-05-25T12:45:43.398Z,21.44
2023-05-25T12:48:11.973Z,21.41
2023-05-25T12:50:58.287Z,21.54
2023-05-25T12:53:27.247Z,21.40
2023-05-25T12:56:04.377Z,21.43
2023-05-25T12:58:32.199Z,21.53
2023-05-25T13:01:00.247Z,21.63
2023-05-25T13:03:28.396Z,21.73
2023-05-25T13:06:03.275Z,21.77
2023-05-25T13:08:31.318Z,21.64
2023-05-25T13:10:59.970Z,21.83
2023-05-25T13:13:27.884Z,21.86
2023-05-25T13:15:55.905Z,21.80
2023-05-25T13:18:23.710Z,21.87
2023-05-25T13:20:55.189Z,21.62
2023-05-25T13:23:26.598Z,21.62
2023-05-25T13:25:54.336Z,21.71
2023-05-25T13:28:22.076Z,21.62
2023-05-25T13:30:50.036Z,21.65
2023-05-25T13:33:17.773Z,21.63
2023-05-25T13:35:58.834Z,21.70
2023-05-25T13:38:29.659Z,21.65
2023-05-25T13:40:57.764Z,21.69
2023-05-25T13:43:25.845Z,21.60
2023-05-25T13:45:53.662Z,21.63
2023-05-25T13:48:21.521Z,21.73
2023-05-25T13:50:49.991Z,21.73
2023-05-25T13:53:18.054Z,21.59
2023-05-25T13:55:47.722Z,21.52
2023-05-25T13:58:16.011Z,21.66
2023-05-25T14:00:44.259Z,21.59
2023-05-25T14:03:12.339Z,21.61
2023-05-25T14:05:40.454Z,21.66
2023-05-25T14:08:08.251Z,21.56
2023-05-25T14:10:36.197Z,21.52
2023-05-25T14:13:05.584Z,21.62
2023-05-25T14:15:33.329Z,21.73
2023-05-25T14:18:01.195Z,21.68
2023-05-25T14:20:29.307Z,21.46
2023-05-25T14:22:57.164Z,21.64
2023-05-25T14:25:25.140Z,21.65
2023-05-25T14:27:54.468Z,21.41
2023-05-25T14:30:23.766Z,21.21
2023-05-25T14:32:51.998Z,21.23
2023-05-25T14:35:20.107Z,21.17
2023-05-25T14:37:48.132Z,21.29
2023-05-25T14:40:15.890Z,21.37
2023-05-25T14:42:43.863Z,21.40
2023-05-25T14:45:13.974Z,21.32
2023-05-25T14:47:44.686Z,21.33
2023-05-25T14:50:12.567Z,21.43
2023-05-25T14:52:41.916Z,21.47
2023-05-25T14:55:10.955Z,21.51
2023-05-25T14:57:39.315Z,21.48
2023-05-25T15:00:08.564Z,21.63
2023-05-25T15:02:36.610Z,21.79
2023-05-25T15:05:06.432Z,21.88
2023-05-25T15:07:34.174Z,21.92
2023-05-25T15:10:02.116Z,21.95
2023-05-25T15:12:29.829Z,21.88
2023-05-25T15:14:57.594Z,21.75
2023-05-25T15:17:25.574Z,21.68
2023-05-25T15:19:53.311Z,21.53
2023-05-25T15:22:22.564Z,21.53
2023-05-25T15:24:51.073Z,21.49
2023-05-25T15:27:18.880Z,21.30
2023-05-25T15:29:46.984Z,21.47
2023-05-25T15:32:17.915Z,21.63
2023-05-25T15:34:45.905Z,21.75
2023-05-25T15:37:13.719Z,21.72
2023-05-25T15:39:43.178Z,21.86
2023-05-25T15:42:10.747Z,21.80
2023-05-25T15:44:38.757Z,21.93
2023-05-25T15:47:06.955Z,21.75
2023-05-25T15:49:36.773Z,21.80
2023-05-25T15:52:04.993Z,21.81
2023-05-25T15:54:32.938Z,21.76
2023-05-25T15:57:02.428Z,21.84
2023-05-25T15:59:29.992Z,21.80
2023-05-25T16:04:46.514Z,21.80
2023-05-25T16:07:14.296Z,21.86
2023-05-25T16:09:42.068Z,21.88
2023-05-25T16:15:00.656Z,21.84
2023-05-25T16:17:29.599Z,21.78
2023-05-25T16:19:57.428Z,21.64
2023-05-25T16:22:25.232Z,21.44
2023-05-25T16:24:53.521Z,21.56
2023-05-25T16:27:22.770Z,21.64
2023-05-25T16:29:50.804Z,21.62
2023-05-25T16:32:19.187Z,21.76
2023-05-25T16:34:46.993Z,21.55
2023-05-25T16:37:14.739Z,21.66
2023-05-25T16:39:43.003Z,21.51
2023-05-25T16:42:10.756Z,21.54
2023-05-25T16:44:39.846Z,21.55
2023-05-25T16:47:08.380Z,21.64
2023-05-25T16:49:36.137Z,21.73
2023-05-25T16:52:03.870Z,21.81
2023-05-25T16:54:32.159Z,21.88
2023-05-25T16:56:59.925Z,21.84
2023-05-25T16:59:28.019Z,21.89
2023-05-25T17:01:58.043Z,21.86
2023-05-25T17:04:25.829Z,21.92
2023-05-25T17:06:53.553Z,21.98
2023-05-25T17:09:21.647Z,22.02
2023-05-25T17:11:50.365Z,21.91
2023-05-25T17:14:18.984Z,21.77
2023-05-25T17:16:46.740Z,21.79
2023-05-25T17:19:15.957Z,21.73
2023-05-25T17:21:43.976Z,21.69
2023-05-25T17:24:11.979Z,21.65
2023-05-25T17:26:39.738Z,21.59
2023-05-25T17:29:07.493Z,21.61
2023-05-25T17:31:36.406Z,21.49
2023-05-25T17:34:04.183Z,21.45
2023-05-25T17:36:33.299Z,21.30
2023-05-25T17:39:02.315Z,21.36
2023-05-25T17:41:30.793Z,21.40
2023-05-25T17:43:58.505Z,21.41
2023-05-25T17:46:26.613Z,21.43
2023-05-25T17:48:54.436Z,21.41
2023-05-25T17:51:22.314Z,21.49
2023-05-25T17:53:51.662Z,21.48
2023-05-25T17:56:19.442Z,21.38
2023-05-25T17:58:47.854Z,21.24
2023-05-25T18:01:16.685Z,21.33
2023-05-25T18:03:44.643Z,21.39
2023-05-25T18:06:12.439Z,21.12
2023-05-25T18:08:40.393Z,21.21
2023-05-25T18:11:09.506Z,21.31
2023-05-25T18:13:37.233Z,21.21
2023-05-25T18:16:05.229Z,21.29
2023-05-25T18:18:33.034Z,21.21
2023-05-25T18:21:01.263Z,21.19
2023-05-25T18:23:29.303Z,21.10
2023-05-25T18:25:57.097Z,21.15
2023-05-25T18:28:26.979Z,21.18
2023-05-25T18:30:56.142Z,20.95
2023-05-25T18:33:23.913Z,21.04
2023-05-25T18:35:51.648Z,21.03
2023-05-25T18:38:19.991Z,21.08
2023-05-25T18:40:47.765Z,21.05
2023-05-25T18:43:15.560Z,20.91
2023-05-25T18:45:45.254Z,20.83
2023-05-25T18:48:13.356Z,20.85
2023-05-25T18:50:42.168Z,20.82
2023-05-25T18:53:11.050Z,20.75
2023-05-25T18:55:39.060Z,20.72
2023-05-25T18:58:06.930Z,20.67
2023-05-25T19:00:35.710Z,20.71
2023-05-25T19:03:06.057Z,20.66
2023-05-25T19:05:33.931Z,20.59
2023-05-25T19:08:02.168Z,20.63
2023-05-25T19:10:30.036Z,20.56
2023-05-25T19:12:57.992Z,20.52
2023-05-25T19:15:26.120Z,20.39
2023-05-25T19:17:53.934Z,20.34
2023-05-25T19:20:23.202Z,20.46
2023-05-25T19:22:51.384Z,20.31
2023-05-25T19:25:19.373Z,20.34
2023-05-25T19:27:47.157Z,20.31
2023-05-25T19:30:15.669Z,20.34
2023-05-25T19:32:43.465Z,20.33
2023-05-25T19:35:11.601Z,20.29
2023-05-25T19:37:42.221Z,20.23
2023-05-25T19:40:11.079Z,20.14
2023-05-25T19:42:38.933Z,20.21
2023-05-25T19:45:07.898Z,20.13
2023-05-25T19:47:35.948Z,20.10
2023-05-25T19:50:04.010Z,20.05
2023-05-25T19:52:32.130Z,20.09
2023-05-25T19:55:01.491Z,20.09
2023-05-25T19:57:29.364Z,19.96
2023-05-25T19:59:57.726Z,19.96
2023-05-25T20:02:25.682Z,19.91
2023-05-25T20:04:53.519Z,19.83
2023-05-25T20:07:21.835Z,19.75
2023-05-25T20:09:49.650Z,19.77
2023-05-25T20:12:18.902Z,19.76
2023-05-25T20:14:47.984Z,19.78
2023-05-25T20:17:16.046Z,19.75
2023-05-25T20:19:43.846Z,19.77
2023-05-25T20:22:11.799Z,19.70
2023-05-25T20:24:39.540Z,19.65
2023-05-25T20:27:07.348Z,19.67
2023-05-25T20:29:37.525Z,19.61
2023-05-25T20:32:07.093Z,19.46
2023-05-25T20:34:35.059Z,19.44
2023-05-25T20:37:03.084Z,19.38
2023-05-25T20:39:31.061Z,19.36
2023-05-25T20:41:58.791Z,19.34
2023-05-25T20:44:27.602Z,19.28
2023-05-25T20:46:56.724Z,19.14
2023-05-25T20:49:25.997Z,18.98
2023-05-25T20:51:54.177Z,18.77
2023-05-25T20:54:21.900Z,18.74
2023-05-25T20:56:51.163Z,18.84
2023-05-25T20:59:19.372Z,18.73
2023-05-25T21:01:47.177Z,18.72
2023-05-25T21:04:16.356Z,18.62
2023-05-25T21:06:44.290Z,18.56
2023-05-25T21:09:12.097Z,18.45
2023-05-25T21:11:39.816Z,18.48
2023-05-25T21:14:08.276Z,18.42
2023-05-25T21:16:36.181Z,18.30
2023-05-25T21:19:03.967Z,18.24
2023-05-25T21:21:34.245Z,18.29
2023-05-25T21:24:02.487Z,18.32
2023-05-25T21:26:31.242Z,18.19
2023-05-25T21:29:00.595Z,18.21
2023-05-25T21:31:28.413Z,18.04
2023-05-25T21:33:57.523Z,18.02
2023-05-25T21:36:26.583Z,18.04
2023-05-25T21:38:55.689Z,18.04
2023-05-25T21:41:23.534Z,17.99
2023-05-25T21:43:51.726Z,17.99
2023-05-25T21:46:19.530Z,18.00
2023-05-25T21:48:47.284Z,17.99
2023-05-25T21:51:15.302Z,18.02
2023-05-25T21:53:43.092Z,17.96
2023-05-25T21:56:12.210Z,17.88
2023-05-25T21:58:40.537Z,17.78
2023-05-25T22:01:08.269Z,17.77
2023-05-25T22:03:36.133Z,17.81
2023-05-25T22:06:04.666Z,17.75
2023-05-25T22:08:32.413Z,17.75
2023-05-25T22:11:00.153Z,17.79
2023-05-25T22:13:29.790Z,17.75
2023-05-25T22:15:57.335Z,17.77
2023-05-25T22:18:25.227Z,17.80
2023-05-25T22:20:53.545Z,17.78
2023-05-25T22:23:21.300Z,17.77
2023-05-25T22:25:48.985Z,17.47
2023-05-25T22:28:17.385Z,17.56
2023-05-25T22:30:46.527Z,17.55
2023-05-25T22:33:14.300Z,17.49
2023-05-25T22:35:42.537Z,17.36
2023-05-25T22:38:10.263Z,17.18
2023-05-25T22:40:38.010Z,17.23
2023-05-25T22:43:13.037Z,17.24
2023-05-25T22:45:41.283Z,17.20
2023-05-25T22:48:12.684Z,17.17
2023-05-25T22:50:41.379Z,17.04
2023-05-25T22:53:09.127Z,16.98
2023-05-25T22:55:36.914Z,16.88
2023-05-25T22:58:05.171Z,16.79
2023-05-25T23:00:33.022Z,16.80
2023-05-25T23:03:03.260Z,16.79
2023-05-25T23:05:34.269Z,16.70
2023-05-25T23:08:01.995Z,16.74
2023-05-25T23:10:29.751Z,16.69
2023-05-25T23:12:57.781Z,16.58
2023-05-25T23:15:25.501Z,16.62
2023-05-25T23:17:53.366Z,16.62
2023-05-25T23:20:22.083Z,16.47
2023-05-25T23:22:51.292Z,16.54
2023-05-25T23:25:19.073Z,16.59
2023-05-25T23:27:47.376Z,16.58
2023-05-25T23:30:16.110Z,16.61
2023-05-25T23:32:44.002Z,16.52
2023-05-25T23:35:12.178Z,16.51
2023-05-25T23:37:39.875Z,16.51
2023-05-25T23:40:09.815Z,16.53
2023-05-25T23:42:41.857Z,16.54
2023-05-25T23:45:10.337Z,16.51
2023-05-25T23:47:38.095Z,16.44
2023-05-25T23:50:07.028Z,16.45
2023-05-25T23:52:34.838Z,16.45
2023-05-25T23:55:02.674Z,16.41
2023-05-25T23:57:32.245Z,16.45
2023-05-25T23:59:59.810Z,16.44
